sensor_id;sensor_type;location;lat;lon;timestamp;pressure;altitude;pressure_sealevel;temperature;humidity
39411;BME280;26579;43.238;23.124;2023-02-17T00:01:23;97747.41;;;7.87;40.58
39411;BME280;26579;43.238;23.124;2023-02-17T00:03:49;97735.59;;;7.97;39.69
39411;BME280;26579;43.238;23.124;2023-02-17T00:06:17;97740.09;;;8.24;39.11
39411;BME280;26579;43.238;23.124;2023-02-17T00:08:43;97739.56;;;8.47;38.47
39411;BME280;26579;43.238;23.124;2023-02-17T00:11:10;97749.44;;;8.69;38.02
39411;BME280;26579;43.238;23.124;2023-02-17T00:13:36;97733.59;;;8.88;37.64
39411;BME280;26579;43.238;23.124;2023-02-17T00:16:08;97710.72;;;9.07;37.16
39411;BME280;26579;43.238;23.124;2023-02-17T00:18:35;97719.19;;;9.24;36.64
39411;BME280;26579;43.238;23.124;2023-02-17T00:21:11;97714.91;;;9.50;36.20
39411;BME280;26579;43.238;23.124;2023-02-17T00:23:37;97729.00;;;9.73;35.37
39411;BME280;26579;43.238;23.124;2023-02-17T00:26:06;97715.53;;;9.93;35.41
39411;BME280;26579;43.238;23.124;2023-02-17T00:28:33;97706.47;;;10.12;35.09
39411;BME280;26579;43.238;23.124;2023-02-17T00:30:58;97702.00;;;10.27;35.20
39411;BME280;26579;43.238;23.124;2023-02-17T00:33:25;97714.63;;;10.33;35.01
39411;BME280;26579;43.238;23.124;2023-02-17T00:35:51;97717.22;;;10.46;35.15
39411;BME280;26579;43.238;23.124;2023-02-17T00:38:16;97702.94;;;10.51;34.71
39411;BME280;26579;43.238;23.124;2023-02-17T00:40:42;97698.13;;;10.58;34.64
39411;BME280;26579;43.238;23.124;2023-02-17T00:43:08;97703.88;;;10.63;35.10
39411;BME280;26579;43.238;23.124;2023-02-17T00:45:33;97701.34;;;10.61;34.96
39411;BME280;26579;43.238;23.124;2023-02-17T00:47:59;97689.59;;;10.56;35.23
39411;BME280;26579;43.238;23.124;2023-02-17T00:50:25;97688.50;;;10.47;35.63
39411;BME280;26579;43.238;23.124;2023-02-17T00:52:50;97691.41;;;10.42;35.76
39411;BME280;26579;43.238;23.124;2023-02-17T00:55:16;97684.66;;;10.27;36.23
39411;BME280;26579;43.238;23.124;2023-02-17T00:57:42;97697.53;;;10.16;36.73
39411;BME280;26579;43.238;23.124;2023-02-17T01:00:08;97682.66;;;9.92;35.57
39411;BME280;26579;43.238;23.124;2023-02-17T01:02:34;97698.88;;;9.83;36.40
39411;BME280;26579;43.238;23.124;2023-02-17T01:04:59;97677.00;;;9.60;37.73
39411;BME280;26579;43.238;23.124;2023-02-17T01:07:25;97693.19;;;9.51;37.74
39411;BME280;26579;43.238;23.124;2023-02-17T01:09:50;97688.78;;;9.39;38.14
39411;BME280;26579;43.238;23.124;2023-02-17T01:12:16;97691.66;;;9.21;39.05
39411;BME280;26579;43.238;23.124;2023-02-17T01:14:42;97660.25;;;9.12;39.17
39411;BME280;26579;43.238;23.124;2023-02-17T01:17:07;97686.50;;;9.07;39.88
39411;BME280;26579;43.238;23.124;2023-02-17T01:19:33;97667.25;;;8.97;39.86
39411;BME280;26579;43.238;23.124;2023-02-17T01:21:59;97685.91;;;8.89;40.25
39411;BME280;26579;43.238;23.124;2023-02-17T01:24:25;97666.16;;;8.87;41.13
39411;BME280;26579;43.238;23.124;2023-02-17T01:26:51;97680.56;;;8.64;41.92
39411;BME280;26579;43.238;23.124;2023-02-17T01:29:17;97670.19;;;8.64;41.51
39411;BME280;26579;43.238;23.124;2023-02-17T01:31:43;97652.16;;;8.48;41.73
39411;BME280;26579;43.238;23.124;2023-02-17T01:34:10;97672.47;;;8.41;42.28
39411;BME280;26579;43.238;23.124;2023-02-17T01:36:36;97672.47;;;8.55;41.42
39411;BME280;26579;43.238;23.124;2023-02-17T01:39:02;97673.84;;;8.47;41.84
39411;BME280;26579;43.238;23.124;2023-02-17T01:41:28;97668.66;;;8.47;42.16
39411;BME280;26579;43.238;23.124;2023-02-17T01:44:15;97677.34;;;8.46;41.83
39411;BME280;26579;43.238;23.124;2023-02-17T01:46:44;97645.94;;;8.22;42.54
39411;BME280;26579;43.238;23.124;2023-02-17T01:49:32;97669.47;;;8.19;42.41
39411;BME280;26579;43.238;23.124;2023-02-17T01:52:14;97654.28;;;8.12;42.38
39411;BME280;26579;43.238;23.124;2023-02-17T01:54:50;97679.47;;;8.10;42.71
39411;BME280;26579;43.238;23.124;2023-02-17T01:57:21;97664.56;;;8.14;42.72
39411;BME280;26579;43.238;23.124;2023-02-17T01:59:48;97670.94;;;8.08;42.97
39411;BME280;26579;43.238;23.124;2023-02-17T02:02:14;97662.06;;;7.98;43.43
39411;BME280;26579;43.238;23.124;2023-02-17T02:04:42;97657.88;;;7.96;43.01
39411;BME280;26579;43.238;23.124;2023-02-17T02:07:14;97655.28;;;7.96;43.09
39411;BME280;26579;43.238;23.124;2023-02-17T02:09:48;97662.53;;;8.05;42.74
39411;BME280;26579;43.238;23.124;2023-02-17T02:12:19;97664.66;;;8.12;42.36
39411;BME280;26579;43.238;23.124;2023-02-17T02:14:47;97660.38;;;8.11;42.88
39411;BME280;26579;43.238;23.124;2023-02-17T02:31:19;97644.72;;;7.84;42.70
39411;BME280;26579;43.238;23.124;2023-02-17T02:33:54;97660.84;;;7.89;42.91
39411;BME280;26579;43.238;23.124;2023-02-17T02:36:24;97672.63;;;7.95;42.76
39411;BME280;26579;43.238;23.124;2023-02-17T02:39:00;97645.19;;;7.91;42.41
39411;BME280;26579;43.238;23.124;2023-02-17T02:41:33;97664.56;;;7.85;42.83
39411;BME280;26579;43.238;23.124;2023-02-17T02:44:06;97664.53;;;8.00;42.94
39411;BME280;26579;43.238;23.124;2023-02-17T02:46:32;97655.28;;;7.81;43.43
39411;BME280;26579;43.238;23.124;2023-02-17T02:48:58;97664.28;;;7.90;42.96
39411;BME280;26579;43.238;23.124;2023-02-17T02:55:02;97673.38;;;7.97;43.71
39411;BME280;26579;43.238;23.124;2023-02-17T03:00:26;97673.16;;;7.71;44.54
39411;BME280;26579;43.238;23.124;2023-02-17T03:03:17;97673.31;;;7.68;44.01
39411;BME280;26579;43.238;23.124;2023-02-17T03:06:11;97674.94;;;7.55;44.32
39411;BME280;26579;43.238;23.124;2023-02-17T03:08:44;97670.63;;;7.70;43.50
39411;BME280;26579;43.238;23.124;2023-02-17T03:11:11;97666.09;;;7.59;44.26
39411;BME280;26579;43.238;23.124;2023-02-17T03:13:37;97670.81;;;7.67;44.17
39411;BME280;26579;43.238;23.124;2023-02-17T03:16:05;97669.16;;;7.66;43.87
39411;BME280;26579;43.238;23.124;2023-02-17T03:18:32;97655.97;;;7.55;43.83
39411;BME280;26579;43.238;23.124;2023-02-17T03:21:08;97667.97;;;7.71;43.68
39411;BME280;26579;43.238;23.124;2023-02-17T03:23:36;97664.16;;;7.63;44.04
39411;BME280;26579;43.238;23.124;2023-02-17T03:26:02;97668.88;;;7.70;43.58
39411;BME280;26579;43.238;23.124;2023-02-17T03:28:28;97669.97;;;7.66;43.79
39411;BME280;26579;43.238;23.124;2023-02-17T03:30:53;97657.66;;;7.70;43.68
39411;BME280;26579;43.238;23.124;2023-02-17T03:33:19;97664.91;;;7.79;43.54
39411;BME280;26579;43.238;23.124;2023-02-17T03:35:45;97649.72;;;7.73;43.30
39411;BME280;26579;43.238;23.124;2023-02-17T03:38:10;97669.66;;;7.87;42.14
39411;BME280;26579;43.238;23.124;2023-02-17T03:40:36;97674.47;;;7.93;42.69
39411;BME280;26579;43.238;23.124;2023-02-17T03:43:01;97665.56;;;7.83;42.98
39411;BME280;26579;43.238;23.124;2023-02-17T03:45:27;97682.41;;;7.90;42.92
39411;BME280;26579;43.238;23.124;2023-02-17T03:47:53;97687.53;;;7.91;43.35
39411;BME280;26579;43.238;23.124;2023-02-17T03:50:18;97675.44;;;7.76;43.26
39411;BME280;26579;43.238;23.124;2023-02-17T03:52:44;97699.09;;;7.86;43.14
39411;BME280;26579;43.238;23.124;2023-02-17T03:55:10;97687.22;;;7.82;43.35
39411;BME280;26579;43.238;23.124;2023-02-17T03:57:35;97689.81;;;7.82;43.42
39411;BME280;26579;43.238;23.124;2023-02-17T04:00:02;97691.88;;;7.77;43.29
39411;BME280;26579;43.238;23.124;2023-02-17T04:02:38;97699.31;;;7.67;43.47
39411;BME280;26579;43.238;23.124;2023-02-17T04:05:04;97702.66;;;7.69;43.42
39411;BME280;26579;43.238;23.124;2023-02-17T04:07:30;97705.66;;;7.77;43.12
39411;BME280;26579;43.238;23.124;2023-02-17T04:09:55;97708.88;;;7.81;43.35
39411;BME280;26579;43.238;23.124;2023-02-17T04:12:21;97690.09;;;7.77;42.51
39411;BME280;26579;43.238;23.124;2023-02-17T04:14:47;97710.13;;;7.89;42.26
39411;BME280;26579;43.238;23.124;2023-02-17T04:17:12;97688.59;;;7.73;42.25
39411;BME280;26579;43.238;23.124;2023-02-17T04:19:38;97721.31;;;7.90;43.40
39411;BME280;26579;43.238;23.124;2023-02-17T04:22:04;97696.56;;;7.84;43.67
39411;BME280;26579;43.238;23.124;2023-02-17T04:24:29;97694.53;;;7.75;43.52
39411;BME280;26579;43.238;23.124;2023-02-17T04:26:55;97717.25;;;7.86;43.22
39411;BME280;26579;43.238;23.124;2023-02-17T04:29:21;97719.53;;;7.90;43.19
39411;BME280;26579;43.238;23.124;2023-02-17T04:31:46;97718.72;;;7.90;43.46
39411;BME280;26579;43.238;23.124;2023-02-17T04:34:12;97732.63;;;7.89;42.06
39411;BME280;26579;43.238;23.124;2023-02-17T04:36:38;97724.66;;;7.92;41.92
39411;BME280;26579;43.238;23.124;2023-02-17T04:39:03;97721.97;;;7.93;42.39
39411;BME280;26579;43.238;23.124;2023-02-17T04:41:29;97719.66;;;7.89;42.60
39411;BME280;26579;43.238;23.124;2023-02-17T04:43:54;97713.97;;;7.82;42.10
39411;BME280;26579;43.238;23.124;2023-02-17T04:46:20;97735.09;;;7.90;42.51
39411;BME280;26579;43.238;23.124;2023-02-17T04:48:46;97721.69;;;7.84;42.84
39411;BME280;26579;43.238;23.124;2023-02-17T04:51:12;97710.66;;;7.80;42.38
39411;BME280;26579;43.238;23.124;2023-02-17T04:53:37;97722.69;;;7.81;42.51
39411;BME280;26579;43.238;23.124;2023-02-17T04:56:03;97718.69;;;7.76;42.40
39411;BME280;26579;43.238;23.124;2023-02-17T04:58:29;97725.94;;;7.85;42.35
39411;BME280;26579;43.238;23.124;2023-02-17T05:00:57;97713.69;;;7.72;42.48
39411;BME280;26579;43.238;23.124;2023-02-17T05:03:23;97723.69;;;7.79;42.84
39411;BME280;26579;43.238;23.124;2023-02-17T05:05:49;97725.38;;;7.80;42.43
39411;BME280;26579;43.238;23.124;2023-02-17T05:08:14;97715.34;;;7.74;42.43
39411;BME280;26579;43.238;23.124;2023-02-17T05:10:40;97722.03;;;7.78;41.32
39411;BME280;26579;43.238;23.124;2023-02-17T05:13:06;97718.78;;;7.74;40.23
39411;BME280;26579;43.238;23.124;2023-02-17T05:15:31;97732.69;;;7.87;39.98
39411;BME280;26579;43.238;23.124;2023-02-17T05:17:57;97732.25;;;7.95;39.72
39411;BME280;26579;43.238;23.124;2023-02-17T05:20:23;97738.00;;;8.00;40.06
39411;BME280;26579;43.238;23.124;2023-02-17T05:22:48;97716.59;;;7.97;40.25
39411;BME280;26579;43.238;23.124;2023-02-17T05:25:14;97735.97;;;8.05;40.21
39411;BME280;26579;43.238;23.124;2023-02-17T05:27:40;97734.03;;;8.09;39.44
39411;BME280;26579;43.238;23.124;2023-02-17T05:30:06;97742.94;;;8.19;39.60
39411;BME280;26579;43.238;23.124;2023-02-17T05:32:32;97744.06;;;8.15;39.63
39411;BME280;26579;43.238;23.124;2023-02-17T05:34:57;97734.31;;;8.04;40.11
39411;BME280;26579;43.238;23.124;2023-02-17T05:37:23;97752.38;;;8.06;40.36
39411;BME280;26579;43.238;23.124;2023-02-17T05:39:49;97738.19;;;7.97;39.71
39411;BME280;26579;43.238;23.124;2023-02-17T05:42:14;97750.22;;;7.98;39.76
39411;BME280;26579;43.238;23.124;2023-02-17T05:44:40;97738.00;;;8.00;39.38
39411;BME280;26579;43.238;23.124;2023-02-17T05:47:06;97761.63;;;8.10;40.08
39411;BME280;26579;43.238;23.124;2023-02-17T05:49:32;97761.53;;;8.11;38.82
39411;BME280;26579;43.238;23.124;2023-02-17T05:51:58;97751.34;;;8.08;39.56
39411;BME280;26579;43.238;23.124;2023-02-17T05:54:24;97760.81;;;8.09;39.25
39411;BME280;26579;43.238;23.124;2023-02-17T05:56:49;97754.03;;;8.07;39.14
39411;BME280;26579;43.238;23.124;2023-02-17T05:59:15;97769.25;;;8.13;38.57
39411;BME280;26579;43.238;23.124;2023-02-17T06:01:41;97770.00;;;8.15;37.77
39411;BME280;26579;43.238;23.124;2023-02-17T06:04:06;97772.47;;;8.16;37.55
39411;BME280;26579;43.238;23.124;2023-02-17T06:06:32;97780.06;;;8.20;37.11
39411;BME280;26579;43.238;23.124;2023-02-17T06:08:58;97777.03;;;8.27;37.61
39411;BME280;26579;43.238;23.124;2023-02-17T06:11:23;97786.72;;;8.39;36.37
39411;BME280;26579;43.238;23.124;2023-02-17T06:13:49;97791.47;;;8.47;37.29
39411;BME280;26579;43.238;23.124;2023-02-17T06:16:14;97798.97;;;8.52;36.77
39411;BME280;26579;43.238;23.124;2023-02-17T06:18:40;97800.66;;;8.53;37.89
39411;BME280;26579;43.238;23.124;2023-02-17T06:21:06;97805.34;;;8.46;37.28
39411;BME280;26579;43.238;23.124;2023-02-17T06:23:32;97795.53;;;8.51;37.65
39411;BME280;26579;43.238;23.124;2023-02-17T06:25:57;97806.47;;;8.56;36.90
39411;BME280;26579;43.238;23.124;2023-02-17T06:28:23;97796.84;;;8.58;38.09
39411;BME280;26579;43.238;23.124;2023-02-17T06:30:49;97801.75;;;8.77;37.46
39411;BME280;26579;43.238;23.124;2023-02-17T06:33:14;97800.84;;;9.61;36.02
39411;BME280;26579;43.238;23.124;2023-02-17T06:35:40;97809.81;;;11.49;32.80
39411;BME280;26579;43.238;23.124;2023-02-17T06:38:06;97787.81;;;12.70;31.10
39411;BME280;26579;43.238;23.124;2023-02-17T06:40:32;97797.19;;;13.29;30.19
39411;BME280;26579;43.238;23.124;2023-02-17T06:42:58;97806.97;;;14.65;29.05
39411;BME280;26579;43.238;23.124;2023-02-17T06:45:23;97806.25;;;16.14;26.80
39411;BME280;26579;43.238;23.124;2023-02-17T06:47:49;97810.16;;;17.23;24.87
39411;BME280;26579;43.238;23.124;2023-02-17T06:50:15;97802.59;;;17.83;24.32
39411;BME280;26579;43.238;23.124;2023-02-17T06:52:41;97814.41;;;18.59;23.62
39411;BME280;26579;43.238;23.124;2023-02-17T06:55:08;97811.81;;;18.85;23.35
39411;BME280;26579;43.238;23.124;2023-02-17T06:57:34;97810.22;;;19.35;22.32
39411;BME280;26579;43.238;23.124;2023-02-17T07:00:00;97812.16;;;19.67;21.65
39411;BME280;26579;43.238;23.124;2023-02-17T07:02:26;97799.31;;;20.21;21.23
39411;BME280;26579;43.238;23.124;2023-02-17T07:04:55;97821.75;;;20.91;20.44
39411;BME280;26579;43.238;23.124;2023-02-17T07:07:21;97826.91;;;21.71;19.85
39411;BME280;26579;43.238;23.124;2023-02-17T07:09:50;97821.75;;;22.47;19.28
39411;BME280;26579;43.238;23.124;2023-02-17T07:12:15;97816.63;;;22.22;18.91
39411;BME280;26579;43.238;23.124;2023-02-17T07:14:41;97812.97;;;22.00;18.74
39411;BME280;26579;43.238;23.124;2023-02-17T07:17:07;97811.69;;;22.57;18.32
39411;BME280;26579;43.238;23.124;2023-02-17T07:19:32;97825.50;;;23.35;18.01
39411;BME280;26579;43.238;23.124;2023-02-17T07:21:58;97821.47;;;24.54;16.94
39411;BME280;26579;43.238;23.124;2023-02-17T07:24:24;97820.47;;;25.18;16.70
39411;BME280;26579;43.238;23.124;2023-02-17T07:26:50;97818.84;;;23.75;17.50
39411;BME280;26579;43.238;23.124;2023-02-17T07:29:15;97828.72;;;22.63;18.87
39411;BME280;26579;43.238;23.124;2023-02-17T07:31:41;97832.03;;;22.65;18.02
39411;BME280;26579;43.238;23.124;2023-02-17T07:34:06;97829.09;;;22.13;18.81
39411;BME280;26579;43.238;23.124;2023-02-17T07:36:32;97834.50;;;21.74;18.68
39411;BME280;26579;43.238;23.124;2023-02-17T07:38:58;97828.47;;;22.57;17.87
39411;BME280;26579;43.238;23.124;2023-02-17T07:41:24;97837.81;;;22.68;17.56
39411;BME280;26579;43.238;23.124;2023-02-17T07:43:55;97831.16;;;22.87;18.24
39411;BME280;26579;43.238;23.124;2023-02-17T07:46:22;97834.25;;;23.50;17.45
39411;BME280;26579;43.238;23.124;2023-02-17T07:48:48;97819.31;;;23.64;17.30
39411;BME280;26579;43.238;23.124;2023-02-17T07:51:19;97822.81;;;24.01;17.43
39411;BME280;26579;43.238;23.124;2023-02-17T07:53:46;97828.09;;;23.64;17.67
39411;BME280;26579;43.238;23.124;2023-02-17T07:56:13;97834.38;;;23.12;17.57
39411;BME280;26579;43.238;23.124;2023-02-17T07:58:41;97831.66;;;23.05;18.15
39411;BME280;26579;43.238;23.124;2023-02-17T08:01:11;97834.00;;;23.45;18.08
39411;BME280;26579;43.238;23.124;2023-02-17T08:03:37;97834.44;;;23.63;17.95
39411;BME280;26579;43.238;23.124;2023-02-17T08:06:03;97816.72;;;23.85;17.52
39411;BME280;26579;43.238;23.124;2023-02-17T08:08:29;97819.72;;;23.46;16.43
39411;BME280;26579;43.238;23.124;2023-02-17T08:10:59;97826.72;;;23.83;16.15
39411;BME280;26579;43.238;23.124;2023-02-17T08:13:26;97831.94;;;23.91;16.06
39411;BME280;26579;43.238;23.124;2023-02-17T08:15:52;97823.94;;;24.13;15.59
39411;BME280;26579;43.238;23.124;2023-02-17T08:18:18;97824.66;;;23.49;16.02
39411;BME280;26579;43.238;23.124;2023-02-17T08:20:43;97814.31;;;23.39;15.83
39411;BME280;26579;43.238;23.124;2023-02-17T08:23:09;97817.53;;;23.35;15.89
39411;BME280;26579;43.238;23.124;2023-02-17T08:25:36;97836.63;;;24.82;15.11
39411;BME280;26579;43.238;23.124;2023-02-17T08:28:04;97830.03;;;25.13;14.53
39411;BME280;26579;43.238;23.124;2023-02-17T08:30:29;97825.81;;;24.90;13.99
39411;BME280;26579;43.238;23.124;2023-02-17T08:32:55;97826.63;;;25.60;13.88
39411;BME280;26579;43.238;23.124;2023-02-17T08:35:21;97825.91;;;25.93;14.01
39411;BME280;26579;43.238;23.124;2023-02-17T08:37:48;97831.47;;;26.11;13.62
39411;BME280;26579;43.238;23.124;2023-02-17T08:40:14;97831.06;;;26.08;12.58
39411;BME280;26579;43.238;23.124;2023-02-17T08:42:40;97837.66;;;28.15;11.91
39411;BME280;26579;43.238;23.124;2023-02-17T08:45:06;97839.53;;;27.69;11.56
39411;BME280;26579;43.238;23.124;2023-02-17T08:47:34;97840.91;;;27.14;11.81
39411;BME280;26579;43.238;23.124;2023-02-17T08:49:59;97822.88;;;27.67;10.98
39411;BME280;26579;43.238;23.124;2023-02-17T08:52:25;97849.81;;;29.36;10.56
39411;BME280;26579;43.238;23.124;2023-02-17T08:54:51;97841.75;;;29.73;10.09
39411;BME280;26579;43.238;23.124;2023-02-17T08:57:17;97831.19;;;30.08;9.41
39411;BME280;26579;43.238;23.124;2023-02-17T08:59:43;97836.22;;;30.58;9.24
39411;BME280;26579;43.238;23.124;2023-02-17T09:02:09;97838.47;;;30.97;9.35
39411;BME280;26579;43.238;23.124;2023-02-17T09:04:35;97829.31;;;31.09;8.89
39411;BME280;26579;43.238;23.124;2023-02-17T09:07:01;97832.59;;;31.35;9.01
39411;BME280;26579;43.238;23.124;2023-02-17T09:09:27;97835.03;;;31.48;8.37
39411;BME280;26579;43.238;23.124;2023-02-17T09:11:55;97823.34;;;31.43;8.83
39411;BME280;26579;43.238;23.124;2023-02-17T09:14:21;97842.47;;;31.98;8.63
39411;BME280;26579;43.238;23.124;2023-02-17T09:16:46;97826.56;;;30.93;8.95
39411;BME280;26579;43.238;23.124;2023-02-17T09:19:12;97840.47;;;31.01;9.15
39411;BME280;26579;43.238;23.124;2023-02-17T09:21:38;97831.09;;;31.16;9.34
39411;BME280;26579;43.238;23.124;2023-02-17T09:24:04;97838.44;;;30.73;9.53
39411;BME280;26579;43.238;23.124;2023-02-17T09:26:29;97815.38;;;30.42;9.45
39411;BME280;26579;43.238;23.124;2023-02-17T09:28:55;97828.22;;;29.98;9.48
39411;BME280;26579;43.238;23.124;2023-02-17T09:31:24;97834.81;;;28.66;10.41
39411;BME280;26579;43.238;23.124;2023-02-17T09:33:50;97826.03;;;28.28;10.97
39411;BME280;26579;43.238;23.124;2023-02-17T09:36:19;97816.97;;;29.04;10.70
39411;BME280;26579;43.238;23.124;2023-02-17T09:38:45;97822.31;;;29.41;10.10
39411;BME280;26579;43.238;23.124;2023-02-17T09:43:43;97822.50;;;28.84;10.41
39411;BME280;26579;43.238;23.124;2023-02-17T09:46:23;97815.56;;;27.49;11.00
39411;BME280;26579;43.238;23.124;2023-02-17T09:49:02;97825.19;;;28.27;10.90
39411;BME280;26579;43.238;23.124;2023-02-17T09:51:46;97823.53;;;28.01;10.83
39411;BME280;26579;43.238;23.124;2023-02-17T09:54:23;97814.66;;;28.07;10.76
39411;BME280;26579;43.238;23.124;2023-02-17T09:56:52;97823.25;;;26.06;12.09
39411;BME280;26579;43.238;23.124;2023-02-17T10:01:45;97815.91;;;27.60;11.40
39411;BME280;26579;43.238;23.124;2023-02-17T10:04:29;97814.03;;;27.67;10.96
39411;BME280;26579;43.238;23.124;2023-02-17T10:10:09;97824.69;;;27.22;11.63
39411;BME280;26579;43.238;23.124;2023-02-17T10:12:38;97816.53;;;26.37;12.39
39411;BME280;26579;43.238;23.124;2023-02-17T10:17:56;97820.44;;;26.48;12.25
39411;BME280;26579;43.238;23.124;2023-02-17T10:20:32;97810.56;;;26.48;11.98
39411;BME280;26579;43.238;23.124;2023-02-17T10:23:19;97806.88;;;26.69;11.98
39411;BME280;26579;43.238;23.124;2023-02-17T10:31:45;97811.00;;;26.58;12.39
39411;BME280;26579;43.238;23.124;2023-02-17T10:37:02;97809.19;;;25.64;12.88
39411;BME280;26579;43.238;23.124;2023-02-17T10:39:50;97811.34;;;25.34;13.10
39411;BME280;26579;43.238;23.124;2023-02-17T10:44:54;97797.47;;;25.11;13.27
39411;BME280;26579;43.238;23.124;2023-02-17T10:47:21;97795.28;;;24.93;14.42
39411;BME280;26579;43.238;23.124;2023-02-17T10:49:50;97792.75;;;24.28;13.85
39411;BME280;26579;43.238;23.124;2023-02-17T10:52:19;97797.09;;;22.76;14.59
39411;BME280;26579;43.238;23.124;2023-02-17T10:57:19;97793.78;;;21.36;15.99
39411;BME280;26579;43.238;23.124;2023-02-17T10:59:47;97789.03;;;20.67;16.64
39411;BME280;26579;43.238;23.124;2023-02-17T11:02:40;97783.94;;;20.66;16.67
39411;BME280;26579;43.238;23.124;2023-02-17T11:05:07;97788.19;;;20.83;17.54
39411;BME280;26579;43.238;23.124;2023-02-17T11:07:38;97784.88;;;21.29;16.93
39411;BME280;26579;43.238;23.124;2023-02-17T11:12:53;97792.00;;;20.80;16.70
39411;BME280;26579;43.238;23.124;2023-02-17T11:15:23;97777.81;;;20.49;16.74
39411;BME280;26579;43.238;23.124;2023-02-17T11:17:49;97784.56;;;20.68;16.99
39411;BME280;26579;43.238;23.124;2023-02-17T11:22:44;97776.44;;;20.86;17.07
39411;BME280;26579;43.238;23.124;2023-02-17T11:25:25;97772.81;;;20.87;16.52
39411;BME280;26579;43.238;23.124;2023-02-17T11:27:56;97786.69;;;21.28;16.85
39411;BME280;26579;43.238;23.124;2023-02-17T11:30:23;97777.44;;;21.32;17.83
39411;BME280;26579;43.238;23.124;2023-02-17T11:32:49;97762.31;;;21.01;17.46
39411;BME280;26579;43.238;23.124;2023-02-17T11:38:10;97760.34;;;21.35;17.31
39411;BME280;26579;43.238;23.124;2023-02-17T11:40:37;97770.47;;;20.92;18.11
39411;BME280;26579;43.238;23.124;2023-02-17T11:43:04;97767.19;;;20.82;18.31
39411;BME280;26579;43.238;23.124;2023-02-17T11:49:06;97763.25;;;20.77;19.49
39411;BME280;26579;43.238;23.124;2023-02-17T11:54:44;97754.38;;;21.01;18.40
39411;BME280;26579;43.238;23.124;2023-02-17T12:05:52;97746.97;;;21.36;19.40
39411;BME280;26579;43.238;23.124;2023-02-17T12:11:18;97746.94;;;21.44;18.99
39411;BME280;26579;43.238;23.124;2023-02-17T12:22:17;97735.66;;;20.55;18.17
39411;BME280;26579;43.238;23.124;2023-02-17T12:36:12;97719.97;;;21.01;18.16
39411;BME280;26579;43.238;23.124;2023-02-17T12:38:55;97716.91;;;20.82;17.53
39411;BME280;26579;43.238;23.124;2023-02-17T12:41:27;97720.19;;;20.92;18.48
39411;BME280;26579;43.238;23.124;2023-02-17T12:43:58;97722.22;;;20.73;18.11
39411;BME280;26579;43.238;23.124;2023-02-17T12:46:28;97699.84;;;20.37;18.03
39411;BME280;26579;43.238;23.124;2023-02-17T12:49:30;97707.34;;;20.72;18.61
39411;BME280;26579;43.238;23.124;2023-02-17T12:52:27;97711.59;;;20.90;19.40
39411;BME280;26579;43.238;23.124;2023-02-17T12:55:09;97707.03;;;20.67;18.20
39411;BME280;26579;43.238;23.124;2023-02-17T12:57:57;97709.44;;;20.85;18.16
39411;BME280;26579;43.238;23.124;2023-02-17T13:00:33;97707.88;;;21.07;18.13
39411;BME280;26579;43.238;23.124;2023-02-17T13:03:01;97708.97;;;20.82;17.58
39411;BME280;26579;43.238;23.124;2023-02-17T13:08:05;97720.53;;;20.89;17.91
39411;BME280;26579;43.238;23.124;2023-02-17T13:10:36;97713.84;;;21.01;17.71
39411;BME280;26579;43.238;23.124;2023-02-17T13:13:11;97709.13;;;21.19;18.68
39411;BME280;26579;43.238;23.124;2023-02-17T13:15:43;97703.50;;;21.14;18.61
39411;BME280;26579;43.238;23.124;2023-02-17T13:18:24;97704.06;;;21.10;18.43
39411;BME280;26579;43.238;23.124;2023-02-17T13:23:32;97705.28;;;20.91;18.34
39411;BME280;26579;43.238;23.124;2023-02-17T13:28:46;97719.50;;;20.42;18.62
39411;BME280;26579;43.238;23.124;2023-02-17T13:31:17;97712.50;;;20.66;19.75
39411;BME280;26579;43.238;23.124;2023-02-17T13:33:53;97710.13;;;20.79;18.47
39411;BME280;26579;43.238;23.124;2023-02-17T13:36:39;97710.06;;;20.95;18.87
39411;BME280;26579;43.238;23.124;2023-02-17T13:41:51;97700.00;;;20.91;18.53
39411;BME280;26579;43.238;23.124;2023-02-17T13:44:26;97708.03;;;21.06;18.95
39411;BME280;26579;43.238;23.124;2023-02-17T13:46:55;97704.38;;;21.15;19.46
39411;BME280;26579;43.238;23.124;2023-02-17T13:49:24;97711.06;;;21.25;18.01
39411;BME280;26579;43.238;23.124;2023-02-17T13:51:51;97704.97;;;21.25;17.61
39411;BME280;26579;43.238;23.124;2023-02-17T13:54:21;97703.94;;;21.26;16.96
39411;BME280;26579;43.238;23.124;2023-02-17T13:56:51;97710.63;;;21.14;16.49
39411;BME280;26579;43.238;23.124;2023-02-17T13:59:24;97705.56;;;21.04;16.01
39411;BME280;26579;43.238;23.124;2023-02-17T14:01:52;97693.19;;;20.96;16.66
39411;BME280;26579;43.238;23.124;2023-02-17T14:04:31;97702.47;;;20.92;16.58
39411;BME280;26579;43.238;23.124;2023-02-17T14:06:59;97702.13;;;20.95;16.44
39411;BME280;26579;43.238;23.124;2023-02-17T14:09:28;97694.97;;;20.65;16.60
39411;BME280;26579;43.238;23.124;2023-02-17T14:11:55;97705.22;;;20.68;16.85
39411;BME280;26579;43.238;23.124;2023-02-17T14:14:36;97705.41;;;20.66;17.10
39411;BME280;26579;43.238;23.124;2023-02-17T14:17:24;97697.16;;;20.53;17.06
39411;BME280;26579;43.238;23.124;2023-02-17T14:19:51;97698.81;;;20.38;16.79
39411;BME280;26579;43.238;23.124;2023-02-17T14:24:59;97684.34;;;20.17;17.45
39411;BME280;26579;43.238;23.124;2023-02-17T14:27:25;97697.34;;;20.19;17.75
39411;BME280;26579;43.238;23.124;2023-02-17T14:29:50;97689.63;;;20.01;17.79
39411;BME280;26579;43.238;23.124;2023-02-17T14:32:34;97693.28;;;20.08;18.09
39411;BME280;26579;43.238;23.124;2023-02-17T14:35:21;97668.84;;;19.81;18.49
39411;BME280;26579;43.238;23.124;2023-02-17T14:37:47;97696.09;;;19.82;18.82
39411;BME280;26579;43.238;23.124;2023-02-17T14:40:17;97698.56;;;19.67;18.71
39411;BME280;26579;43.238;23.124;2023-02-17T14:42:44;97695.72;;;19.44;19.09
39411;BME280;26579;43.238;23.124;2023-02-17T14:45:10;97687.94;;;19.42;19.37
39411;BME280;26579;43.238;23.124;2023-02-17T14:47:37;97695.53;;;19.37;19.40